Time;durP1;ratioP1;P1;durP2;ratioP2;P2;SDS_P1;SDS_P2;PMS_P1;PMS_P2;Temp;Humidity;BMP_temperature;BMP_pressure;BME280_temperature;BME280_humidity;BME280_pressure;Samples;Min_cycle;Max_cycle;Signal;HPM_P1;HPM_P2
2022/09/07 00:00:41;;;;;;;6.05;3.80;;;18.80;95.10;;;;;;6250832;22;20103;-91
2022/09/07 00:03:43;;;;;;;;;;;;;;;;;;;;;
2022/09/07 00:06:25;;;;;;;5.97;3.53;;;18.90;96.30;;;;;;6266433;22;19915;-91
2022/09/07 00:11:27;;;;;;;6.47;3.65;;;19.00;96.10;;;;;;6217211;22;20025;-87
2022/09/07 00:14:08;;;;;;;5.78;3.67;;;19.00;96.00;;;;;;6286248;22;20030;-90
2022/09/07 00:17:01;;;;;;;6.38;3.97;;;19.00;96.00;;;;;;6286379;22;20332;-93
2022/09/07 00:22:37;;;;;;;7.78;4.38;;;19.00;96.00;;;;;;6325664;22;20014;-91
2022/09/07 00:25:04;;;;;;;7.95;4.18;;;19.10;96.10;;;;;;6286238;22;20019;-92
2022/09/07 00:27:29;;;;;;;7.65;4.00;;;19.10;96.10;;;;;;6261018;22;20015;-91
2022/09/07 00:29:55;;;;;;;5.50;3.45;;;19.00;96.00;;;;;;6260598;22;20351;-91
2022/09/07 00:32:21;;;;;;;8.18;4.18;;;19.00;95.90;;;;;;6285863;22;20007;-89
2022/09/07 00:35:08;;;;;;;6.70;3.78;;;19.00;96.20;;;;;;6286572;22;20029;-89
2022/09/07 00:37:33;;;;;;;6.78;3.95;;;19.00;96.30;;;;;;6285214;22;20030;-89
2022/09/07 00:39:59;;;;;;;7.43;3.67;;;19.00;96.30;;;;;;6311685;22;20019;-91
2022/09/07 00:42:56;;;;;;;;;;;;;;;;;;;;;
2022/09/07 00:45:22;;;;;;;6.22;3.60;;;18.90;96.10;;;;;;6310829;22;20065;-91
2022/09/07 00:48:16;;;;;;;;;;;;;;;;;;;;;
2022/09/07 00:51:02;;;;;;;7.90;3.97;;;18.90;96.20;;;;;;6321816;22;20398;-90
2022/09/07 00:53:44;;;;;;;8.25;4.32;;;18.90;96.20;;;;;;6285188;22;20052;-91
2022/09/07 00:56:14;;;;;;;8.65;4.85;;;18.90;96.30;;;;;;6285626;22;20014;-89
2022/09/07 00:58:48;;;;;;;6.13;3.75;;;19.00;96.30;;;;;;6258541;22;20015;-92
2022/09/07 01:01:16;;;;;;;7.80;4.10;;;18.90;96.10;;;;;;6260916;22;20019;-91
2022/09/07 01:06:57;;;;;;;8.13;4.10;;;18.90;96.30;;;;;;6263855;22;20057;-91
2022/09/07 01:09:31;;;;;;;7.07;4.10;;;18.90;96.50;;;;;;6285572;22;20021;-88
2022/09/07 01:12:01;;;;;;;18.60;4.50;;;18.90;96.30;;;;;;6253678;22;20078;-91
2022/09/07 01:14:35;;;;;;;5.55;3.40;;;18.80;96.30;;;;;;6209948;23;20099;-89
2022/09/07 01:17:21;;;;;;;7.40;4.38;;;18.80;96.60;;;;;;6210542;22;20017;-91
2022/09/07 01:19:59;;;;;;;7.55;4.03;;;18.80;96.40;;;;;;6184126;23;20032;-90
2022/09/07 01:23:10;;;;;;;7.13;4.60;;;18.80;96.30;;;;;;6185166;23;20021;-92
2022/09/07 01:26:03;;;;;;;7.90;4.25;;;18.70;96.60;;;;;;6157843;22;20017;-90
2022/09/07 01:28:34;;;;;;;7.13;4.32;;;18.70;96.90;;;;;;6184790;23;20055;-91
2022/09/07 01:31:27;;;;;;;7.75;4.30;;;18.60;96.70;;;;;;6185461;23;20052;-90
2022/09/07 01:34:22;;;;;;;8.57;4.40;;;18.60;97.00;;;;;;6179013;23;20020;-90
2022/09/07 01:42:30;;;;;;;7.40;4.32;;;18.50;97.20;;;;;;6160452;22;20029;-91
2022/09/07 01:45:20;;;;;;;7.70;5.05;;;18.50;97.50;;;;;;6101402;23;20453;-89
2022/09/07 02:08:35;;;;;;;9.70;4.90;;;18.40;99.20;;;;;;6167947;23;20025;-86
2022/09/07 02:11:09;;;;;;;8.52;5.28;;;18.40;99.30;;;;;;6152985;23;20021;-86
2022/09/07 02:13:45;;;;;;;7.00;4.43;;;18.30;99.50;;;;;;6129652;23;20021;-86
2022/09/07 02:16:18;;;;;;;8.25;4.82;;;18.30;99.80;;;;;;6129770;23;20021;-85
2022/09/07 02:18:46;;;;;;;7.90;4.18;;;18.30;99.90;;;;;;6154328;23;20025;-87
2022/09/07 02:21:16;;;;;;;7.40;4.30;;;18.20;99.90;;;;;;6154667;22;20028;-85
2022/09/07 02:24:28;;;;;;;6.78;4.28;;;18.20;99.90;;;;;;6129865;23;20027;-87
2022/09/07 02:26:56;;;;;;;7.40;4.55;;;18.20;99.90;;;;;;6129986;23;20096;-85
2022/09/07 02:29:22;;;;;;;8.88;4.50;;;18.30;99.90;;;;;;6153304;23;20025;-86
2022/09/07 02:31:50;;;;;;;6.15;3.50;;;18.30;99.90;;;;;;6129589;23;20017;-87
2022/09/07 02:34:16;;;;;;;6.43;3.95;;;18.30;99.90;;;;;;6129950;23;20443;-87
2022/09/07 02:36:47;;;;;;;6.05;3.58;;;18.30;99.90;;;;;;6129753;23;20020;-86
2022/09/07 02:39:22;;;;;;;6.22;2.88;;;18.30;99.90;;;;;;6129450;23;20014;-85
2022/09/07 02:41:48;;;;;;;6.22;3.13;;;18.30;99.90;;;;;;6105752;23;20100;-85
2022/09/07 02:44:20;;;;;;;6.18;3.10;;;18.30;99.90;;;;;;6129886;23;20122;-85
2022/09/07 02:47:00;;;;;;;5.80;2.97;;;18.30;99.90;;;;;;6129737;23;20021;-86
2022/09/07 02:49:34;;;;;;;6.18;3.53;;;18.40;99.90;;;;;;6154696;23;20027;-88
2022/09/07 02:52:18;;;;;;;5.32;3.05;;;18.40;99.90;;;;;;6180555;23;20021;-89
2022/09/07 02:55:19;;;;;;;6.40;3.50;;;18.40;99.90;;;;;;6129256;23;20021;-88
2022/09/07 02:58:03;;;;;;;6.65;3.10;;;18.30;99.90;;;;;;6154278;23;20032;-88
2022/09/07 03:01:01;;;;;;;7.75;3.53;;;18.20;99.90;;;;;;6130660;23;20028;-88
2022/09/07 03:03:32;;;;;;;5.05;2.72;;;18.20;99.90;;;;;;6131660;23;20027;-88
2022/09/07 03:06:05;;;;;;;7.18;3.33;;;18.20;99.90;;;;;;6131022;23;20021;-89
2022/09/07 03:08:34;;;;;;;5.70;2.85;;;18.20;99.90;;;;;;6154739;23;20013;-89
2022/09/07 03:11:03;;;;;;;5.35;2.90;;;18.20;99.90;;;;;;6131387;23;20111;-89
2022/09/07 03:13:29;;;;;;;5.22;3.25;;;18.10;99.90;;;;;;6130804;23;20017;-88
2022/09/07 03:15:55;;;;;;;5.80;2.95;;;18.10;99.90;;;;;;6155594;23;20074;-89
2022/09/07 03:18:24;;;;;;;4.78;2.80;;;18.10;99.90;;;;;;6130887;23;20104;-89
2022/09/07 03:20:50;;;;;;;5.53;2.78;;;18.00;99.90;;;;;;6130482;23;20346;-87
2022/09/07 03:23:15;;;;;;;4.97;2.50;;;18.00;99.90;;;;;;6130872;23;20025;-89
2022/09/07 03:25:42;;;;;;;5.20;2.47;;;17.90;99.90;;;;;;6132054;23;20017;-88
2022/09/07 03:28:16;;;;;;;3.85;2.15;;;17.90;99.90;;;;;;6141010;23;20017;-86
2022/09/07 03:30:43;;;;;;;5.55;2.90;;;17.90;99.90;;;;;;6115719;23;20086;-87
2022/09/07 03:33:09;;;;;;;4.82;2.42;;;17.90;99.90;;;;;;6155847;23;20103;-88
2022/09/07 03:35:35;;;;;;;;;;;17.80;99.90;;;;;;6155958;23;20515;-87
2022/09/07 03:38:00;;;;;;;4.43;2.38;;;17.80;99.90;;;;;;6130790;23;19956;-89
2022/09/07 03:40:26;;;;;;;5.57;2.75;;;17.80;99.90;;;;;;6131044;23;20017;-87
2022/09/07 03:42:52;;;;;;;5.22;2.30;;;17.80;99.90;;;;;;6130807;23;20017;-88
2022/09/07 03:45:24;;;;;;;5.63;2.90;;;17.80;99.90;;;;;;6155976;23;20048;-88
2022/09/07 03:47:50;;;;;;;5.13;2.53;;;17.70;99.90;;;;;;6106507;23;20239;-89
2022/09/07 03:50:15;;;;;;;4.88;2.67;;;17.70;99.90;;;;;;6130876;23;20464;-89
2022/09/07 03:52:41;;;;;;;5.65;3.40;;;17.70;99.90;;;;;;6155355;23;20064;-89
2022/09/07 03:55:07;;;;;;;7.85;3.25;;;17.70;99.90;;;;;;6155047;23;20017;-86
2022/09/07 03:57:33;;;;;;;5.65;3.20;;;17.70;99.90;;;;;;6155524;23;20099;-88
2022/09/07 03:59:59;;;;;;;5.70;2.95;;;17.70;99.90;;;;;;6155166;23;20021;-87
2022/09/07 04:02:24;;;;;;;6.53;3.00;;;17.70;99.90;;;;;;6130857;23;20025;-88
2022/09/07 04:04:50;;;;;;;6.57;3.30;;;17.70;99.90;;;;;;6109473;23;20017;-86
2022/09/07 04:07:16;;;;;;;6.25;3.30;;;17.60;99.90;;;;;;6168120;23;20024;-88
2022/09/07 04:09:41;;;;;;;8.27;3.50;;;17.60;99.90;;;;;;6134412;23;20021;-87
2022/09/07 04:12:08;;;;;;;8.60;3.60;;;17.60;99.90;;;;;;6131038;23;20501;-88
2022/09/07 04:14:33;;;;;;;6.13;3.17;;;17.60;99.90;;;;;;6181657;23;20074;-87
2022/09/07 04:16:59;;;;;;;7.32;4.07;;;17.60;99.90;;;;;;6155420;23;20049;-89
2022/09/07 04:19:25;;;;;;;7.43;3.47;;;17.60;99.90;;;;;;6155106;23;20438;-88
2022/09/07 04:21:51;;;;;;;6.65;3.90;;;17.60;99.90;;;;;;6130810;23;20092;-87
2022/09/07 04:24:17;;;;;;;6.80;3.88;;;17.60;99.90;;;;;;6130946;23;20519;-88
2022/09/07 04:26:44;;;;;;;7.15;3.72;;;17.50;99.90;;;;;;6155212;23;20017;-87
2022/09/07 04:29:11;;;;;;;7.00;4.30;;;17.50;99.90;;;;;;6130996;23;20028;-88
2022/09/07 04:31:38;;;;;;;7.20;3.88;;;17.40;99.90;;;;;;6130687;23;20013;-88
2022/09/07 04:34:04;;;;;;;;;;;17.30;99.90;;;;;;6182055;23;20098;-88
2022/09/07 04:36:30;;;;;;;7.80;4.70;;;17.30;99.90;;;;;;6155881;22;19991;-89
2022/09/07 04:39:01;;;;;;;8.52;4.72;;;17.20;99.90;;;;;;6130422;23;20052;-88
2022/09/07 04:41:29;;;;;;;8.98;5.18;;;17.20;99.90;;;;;;6131023;23;20472;-89
2022/09/07 04:43:58;;;;;;;7.68;5.43;;;17.20;99.90;;;;;;6130788;23;20071;-89
2022/09/07 04:46:34;;;;;;;9.68;5.35;;;17.10;99.90;;;;;;6130690;23;20054;-88
2022/09/07 04:49:03;;;;;;;9.88;5.57;;;17.10;99.90;;;;;;6130674;23;20081;-87
2022/09/07 04:51:30;;;;;;;10.80;5.55;;;17.10;99.90;;;;;;6130549;23;20021;-88
2022/09/07 04:53:58;;;;;;;8.20;5.32;;;17.10;99.90;;;;;;6181292;23;20021;-87
2022/09/07 04:56:24;;;;;;;8.77;5.13;;;17.20;99.90;;;;;;6154940;23;20024;-87
2022/09/07 04:58:51;;;;;;;9.45;5.95;;;17.20;99.90;;;;;;6155015;22;20025;-87
2022/09/07 05:01:19;;;;;;;10.88;6.53;;;17.30;99.90;;;;;;6130171;23;20472;-87
2022/09/07 05:03:45;;;;;;;9.55;6.05;;;17.30;99.90;;;;;;6130603;23;20359;-90
2022/09/07 05:06:11;;;;;;;;;;;17.40;99.90;;;;;;6131967;23;20044;-87
2022/09/07 05:08:42;;;;;;;8.48;5.25;;;17.40;99.90;;;;;;6130536;23;20321;-89
2022/09/07 05:11:10;;;;;;;9.68;6.18;;;17.50;99.90;;;;;;6131638;23;20024;-89
2022/09/07 05:13:36;;;;;;;9.57;5.80;;;17.50;99.90;;;;;;6130709;23;20024;-91
2022/09/07 05:16:16;;;;;;;9.65;5.72;;;17.50;99.90;;;;;;6181699;23;20013;-88
2022/09/07 05:18:42;;;;;;;7.60;5.03;;;17.60;99.90;;;;;;6131417;23;20051;-88
2022/09/07 05:21:14;;;;;;;8.63;5.75;;;17.60;99.90;;;;;;6154564;23;20059;-90
2022/09/07 05:23:41;;;;;;;10.75;6.55;;;17.60;99.90;;;;;;6128669;23;20075;-88
2022/09/07 05:26:07;;;;;;;9.82;6.53;;;17.60;99.90;;;;;;6154987;23;20021;-88
2022/09/07 05:28:34;;;;;;;12.20;6.72;;;17.60;99.90;;;;;;6181171;23;20017;-87
2022/09/07 05:31:17;;;;;;;12.25;7.03;;;17.50;99.90;;;;;;6181444;23;20028;-86
2022/09/07 05:33:56;;;;;;;9.88;6.55;;;17.50;99.90;;;;;;6130181;23;20021;-85
2022/09/07 05:36:24;;;;;;;11.63;7.43;;;17.50;99.90;;;;;;6154587;22;20024;-87
2022/09/07 05:38:50;;;;;;;9.52;6.50;;;17.50;99.90;;;;;;6154655;23;20032;-86
2022/09/07 05:41:18;;;;;;;11.00;7.03;;;17.50;99.90;;;;;;6130126;23;20017;-86
2022/09/07 05:43:44;;;;;;;12.05;6.95;;;17.60;99.90;;;;;;6130037;23;20476;-86
2022/09/07 05:46:37;;;;;;;;;;;17.60;99.90;;;;;;6155358;23;20067;-87
2022/09/07 05:49:28;;;;;;;11.60;6.75;;;17.60;99.90;;;;;;6130328;23;20003;-91
2022/09/07 05:51:54;;;;;;;9.63;6.53;;;17.60;99.90;;;;;;6129885;23;20152;-86
2022/09/07 05:54:20;;;;;;;10.55;6.60;;;17.70;99.90;;;;;;6129632;23;20061;-86
2022/09/07 05:56:46;;;;;;;11.50;7.28;;;17.70;99.90;;;;;;6129578;23;20052;-87
2022/09/07 05:59:11;;;;;;;11.73;7.60;;;17.70;99.90;;;;;;6154501;23;20021;-85
2022/09/07 06:01:46;;;;;;;11.23;7.43;;;17.60;99.90;;;;;;6130056;23;20065;-89
2022/09/07 06:04:12;;;;;;;12.13;7.28;;;17.60;99.90;;;;;;6129180;23;20056;-86
2022/09/07 06:06:37;;;;;;;11.20;6.80;;;17.60;99.90;;;;;;6126669;23;20017;-88
2022/09/07 06:09:03;;;;;;;10.82;6.90;;;17.60;99.90;;;;;;6126751;23;20021;-89
2022/09/07 06:11:38;;;;;;;12.13;7.47;;;17.70;99.90;;;;;;6128236;23;20094;-86
2022/09/07 06:14:04;;;;;;;11.48;7.60;;;17.70;99.90;;;;;;6126701;23;20021;-85
2022/09/07 06:16:32;;;;;;;10.95;7.22;;;17.70;99.90;;;;;;6105429;23;20418;-90
2022/09/07 06:18:58;;;;;;;12.85;7.13;;;17.80;99.90;;;;;;6154926;23;20028;-87
2022/09/07 06:21:24;;;;;;;11.65;7.07;;;17.80;99.90;;;;;;6129689;23;20021;-91
2022/09/07 06:23:50;;;;;;;12.38;7.55;;;17.80;99.90;;;;;;6130122;23;20028;-87
2022/09/07 06:26:17;;;;;;;11.75;7.45;;;17.80;99.90;;;;;;6154671;23;20024;-87
2022/09/07 06:28:46;;;;;;;13.43;7.40;;;17.80;99.90;;;;;;6181032;23;20349;-86
2022/09/07 06:31:14;;;;;;;10.82;7.05;;;17.80;99.90;;;;;;6130217;23;20017;-88
2022/09/07 06:33:43;;;;;;;12.75;7.28;;;17.80;99.90;;;;;;6130700;23;20454;-87
2022/09/07 06:36:14;;;;;;;12.55;8.07;;;17.80;99.90;;;;;;6156336;23;20017;-88
2022/09/07 06:38:41;;;;;;;11.38;7.60;;;17.80;99.90;;;;;;6131616;23;20024;-89
2022/09/07 06:41:14;;;;;;;11.95;7.88;;;17.80;99.90;;;;;;6155737;23;20018;-92
2022/09/07 06:43:40;;;;;;;11.27;7.55;;;17.90;99.90;;;;;;6156660;22;20024;-87
2022/09/07 06:46:06;;;;;;;11.85;7.47;;;17.90;99.90;;;;;;6131802;23;20017;-88
2022/09/07 06:48:32;;;;;;;10.70;7.10;;;17.90;99.90;;;;;;6131527;23;20028;-88
2022/09/07 06:51:00;;;;;;;12.38;7.20;;;17.90;99.90;;;;;;6131457;23;20074;-90
2022/09/07 06:53:30;;;;;;;11.52;7.43;;;17.90;99.90;;;;;;6131346;23;20030;-86
2022/09/07 06:55:55;;;;;;;11.93;7.45;;;17.90;99.90;;;;;;6131195;23;20020;-88
2022/09/07 06:58:23;;;;;;;10.45;7.15;;;17.90;99.90;;;;;;6131642;23;20017;-87
2022/09/07 07:00:49;;;;;;;12.10;7.15;;;17.90;99.90;;;;;;6184540;23;20023;-87
2022/09/07 07:03:15;;;;;;;10.88;7.53;;;17.90;99.90;;;;;;6191961;23;20052;-87
2022/09/07 07:05:48;;;;;;;12.00;7.22;;;17.90;99.90;;;;;;6135021;23;20024;-88
2022/09/07 07:08:14;;;;;;;12.50;7.72;;;18.00;99.90;;;;;;6182757;22;20017;-88
2022/09/07 07:10:44;;;;;;;11.98;7.30;;;18.00;99.90;;;;;;6131352;23;20021;-89
2022/09/07 07:13:09;;;;;;;;;;;18.00;99.90;;;;;;6156189;23;20368;-90
2022/09/07 07:15:36;;;;;;;11.60;7.32;;;18.00;99.90;;;;;;6131136;23;19916;-89
2022/09/07 07:18:03;;;;;;;12.57;7.97;;;18.00;99.90;;;;;;6155819;23;20020;-88
2022/09/07 07:20:28;;;;;;;13.70;8.32;;;18.10;99.90;;;;;;6130913;23;20090;-88
2022/09/07 07:22:56;;;;;;;13.88;8.48;;;18.00;99.90;;;;;;6155728;23;20013;-88
2022/09/07 07:25:22;;;;;;;11.50;7.43;;;18.10;99.90;;;;;;6082852;23;20014;-88
2022/09/07 07:27:48;;;;;;;14.35;8.07;;;18.10;99.90;;;;;;6131210;23;20036;-88
2022/09/07 07:30:16;;;;;;;11.80;7.95;;;18.10;99.90;;;;;;6130935;23;20017;-89
2022/09/07 07:32:49;;;;;;;12.35;8.10;;;18.10;99.90;;;;;;6181930;23;21896;-87
2022/09/07 07:35:17;;;;;;;12.73;8.10;;;18.10;99.90;;;;;;6131092;23;20052;-88
2022/09/07 07:37:43;;;;;;;13.40;8.48;;;18.10;99.90;;;;;;6133923;23;20024;-89
2022/09/07 07:40:12;;;;;;;12.88;8.55;;;18.20;99.90;;;;;;6139628;23;20017;-87
2022/09/07 07:42:53;;;;;;;15.82;10.02;;;18.20;99.90;;;;;;6142274;23;20021;-88
2022/09/07 07:45:21;;;;;;;17.13;11.00;;;18.20;99.90;;;;;;6135648;23;20096;-90
2022/09/07 07:47:59;;;;;;;15.00;9.68;;;18.30;99.90;;;;;;6131167;23;20048;-91
2022/09/07 07:50:25;;;;;;;16.00;10.15;;;18.30;99.90;;;;;;6108001;23;20025;-89
2022/09/07 07:52:51;;;;;;;16.05;10.20;;;18.30;99.90;;;;;;6131117;23;20079;-88
2022/09/07 07:55:24;;;;;;;15.55;9.70;;;18.30;99.90;;;;;;6155537;23;20017;-87
2022/09/07 07:57:50;;;;;;;16.05;10.30;;;18.30;99.90;;;;;;6106877;23;20081;-89
2022/09/07 08:00:16;;;;;;;15.13;9.82;;;18.30;99.90;;;;;;6155334;23;20059;-89
2022/09/07 08:02:48;;;;;;;14.95;9.52;;;18.30;99.90;;;;;;6131192;23;20127;-89
2022/09/07 08:05:15;;;;;;;14.50;8.77;;;18.30;99.90;;;;;;6131488;23;20353;-89
2022/09/07 09:27:28;;;;;;;15.02;9.38;;;18.80;99.90;;;;;;5594100;22;15078930;-88
2022/09/07 09:48:30;;;;;;;12.82;8.73;;;19.30;99.90;;;;;;6210889;23;20446;-89
2022/09/07 09:50:57;;;;;;;12.82;8.57;;;19.40;99.90;;;;;;6184060;23;20069;-90
2022/09/07 09:53:46;;;;;;;12.93;8.52;;;19.40;99.90;;;;;;6184191;23;20526;-89
2022/09/07 09:56:12;;;;;;;12.95;7.63;;;19.40;99.90;;;;;;6209390;23;20048;-90
2022/09/07 09:58:44;;;;;;;14.63;8.38;;;19.40;99.90;;;;;;6135261;22;20103;-89
2022/09/07 10:01:23;;;;;;;11.88;7.82;;;19.40;99.90;;;;;;6184975;23;20109;-89
2022/09/07 10:03:49;;;;;;;12.88;7.88;;;19.40;99.90;;;;;;6184819;23;20021;-89
2022/09/07 10:06:18;;;;;;;11.93;7.70;;;19.40;99.90;;;;;;6184523;23;20454;-90
2022/09/07 10:08:59;;;;;;;12.27;7.28;;;19.40;99.90;;;;;;6185101;23;20020;-89
2022/09/07 10:11:46;;;;;;;12.45;7.60;;;19.50;99.90;;;;;;6185897;22;20017;-88
2022/09/07 10:14:44;;;;;;;12.80;7.30;;;19.50;99.90;;;;;;6185867;23;20021;-89
2022/09/07 10:17:36;;;;;;;11.43;6.93;;;19.50;99.90;;;;;;6186015;23;20054;-89
2022/09/07 10:20:14;;;;;;;12.27;7.35;;;19.50;99.90;;;;;;6186135;23;20024;-89
2022/09/07 10:22:58;;;;;;;13.80;7.50;;;19.50;99.90;;;;;;6186226;23;20021;-90
2022/09/07 10:25:40;;;;;;;12.55;7.70;;;19.60;99.90;;;;;;6185632;23;20048;-89
2022/09/07 10:28:08;;;;;;;11.02;6.90;;;19.60;99.90;;;;;;6185932;23;20345;-89
2022/09/07 10:31:06;;;;;;;12.20;7.28;;;19.60;99.90;;;;;;6185758;23;20012;-89
2022/09/07 10:34:15;;;;;;;13.52;7.57;;;19.60;99.90;;;;;;6174780;23;20024;-89
2022/09/07 10:36:55;;;;;;;10.93;6.93;;;19.70;99.90;;;;;;6093760;23;20122;-89
2022/09/07 10:39:29;;;;;;;11.55;6.43;;;19.80;99.90;;;;;;6185530;23;20016;-89
2022/09/07 10:42:27;;;;;;;10.35;6.50;;;19.90;99.90;;;;;;6185846;23;20024;-88
2022/09/07 10:45:02;;;;;;;12.18;6.28;;;20.00;99.90;;;;;;6173959;22;20017;-89
2022/09/07 10:47:33;;;;;;;10.95;6.63;;;20.10;99.90;;;;;;6210515;23;20016;-89
2022/09/07 10:50:08;;;;;;;9.63;6.05;;;20.20;99.90;;;;;;6186938;23;20054;-88
2022/09/07 10:52:44;;;;;;;10.60;5.95;;;20.20;99.90;;;;;;6210150;23;20016;-89
2022/09/07 10:55:18;;;;;;;8.13;4.97;;;20.20;99.90;;;;;;6185592;23;20012;-87
2022/09/07 10:58:24;;;;;;;8.35;5.07;;;20.20;99.90;;;;;;6185374;23;20024;-88
2022/09/07 11:01:24;;;;;;;8.43;5.35;;;20.30;99.90;;;;;;6071681;23;20347;-88
2022/09/07 11:04:19;;;;;;;9.18;5.65;;;20.40;99.90;;;;;;6185413;23;20402;-88
2022/09/07 11:06:49;;;;;;;9.52;6.32;;;20.40;99.90;;;;;;6185468;23;20016;-88
2022/09/07 11:09:52;;;;;;;9.27;5.78;;;20.40;99.90;;;;;;6185511;23;20027;-88
2022/09/07 11:12:24;;;;;;;8.32;5.70;;;20.40;99.90;;;;;;6185314;23;20013;-87
2022/09/07 11:14:57;;;;;;;11.30;5.90;;;20.40;99.90;;;;;;6210965;23;20116;-88
2022/09/07 11:17:26;;;;;;;8.55;5.40;;;20.50;99.90;;;;;;6190980;23;20017;-87
2022/09/07 11:20:12;;;;;;;9.75;5.22;;;20.60;99.90;;;;;;6190990;23;20013;-87
2022/09/07 11:22:49;;;;;;;7.25;3.95;;;20.80;99.90;;;;;;6185369;23;20065;-87
2022/09/07 11:25:18;;;;;;;;;;;21.10;99.90;;;;;;6185889;23;20021;-87
2022/09/07 11:27:49;;;;;;;5.93;3.65;;;21.30;99.90;;;;;;6185043;23;19916;-87
2022/09/07 11:30:14;;;;;;;6.90;3.88;;;21.50;99.90;;;;;;6210161;23;20342;-88
2022/09/07 11:32:57;;;;;;;6.22;3.83;;;21.80;99.90;;;;;;6185154;23;20020;-89
2022/09/07 11:35:32;;;;;;;6.50;3.28;;;22.00;99.90;;;;;;6210063;23;20401;-88
2022/09/07 11:38:05;;;;;;;6.18;3.33;;;22.30;99.90;;;;;;6185260;23;20059;-89
2022/09/07 11:40:34;;;;;;;4.63;2.60;;;22.50;99.90;;;;;;6185138;23;20016;-88
2022/09/07 11:43:22;;;;;;;6.47;3.05;;;22.70;99.90;;;;;;6184985;23;20016;-88
2022/09/07 11:45:57;;;;;;;4.63;2.67;;;22.70;99.90;;;;;;6210168;23;20032;-89
2022/09/07 11:48:38;;;;;;;7.47;3.70;;;22.60;99.90;;;;;;6185030;23;20013;-87
2022/09/07 11:51:21;;;;;;;6.63;3.33;;;22.50;99.90;;;;;;6185369;23;20363;-87
2022/09/07 11:53:55;;;;;;;6.68;3.78;;;22.30;99.90;;;;;;6185686;23;20025;-89
2022/09/07 11:56:35;;;;;;;5.70;3.13;;;22.30;99.90;;;;;;6191194;23;20021;-86
2022/09/07 11:59:01;;;;;;;5.80;3.15;;;22.50;99.90;;;;;;6216794;23;20013;-88
2022/09/07 12:02:19;;;;;;;5.25;2.78;;;22.60;99.90;;;;;;6185698;23;20391;-86
2022/09/07 12:05:15;;;;;;;4.25;2.47;;;22.90;99.90;;;;;;6184710;23;20056;-87
2022/09/07 12:08:07;;;;;;;3.88;1.98;;;23.00;99.90;;;;;;6209968;23;20108;-87
2022/09/07 12:10:48;;;;;;;4.10;2.30;;;23.30;99.90;;;;;;6209669;23;20023;-88
2022/09/07 12:13:28;;;;;;;3.53;1.70;;;23.40;99.90;;;;;;6210348;23;20021;-86
2022/09/07 12:15:57;;;;;;;4.90;2.50;;;23.60;99.90;;;;;;6184929;23;20077;-88
2022/09/07 12:18:47;;;;;;;3.13;1.63;;;23.70;99.90;;;;;;6185022;23;20052;-88
2022/09/07 12:21:31;;;;;;;4.00;1.73;;;23.80;99.90;;;;;;6185079;23;20021;-87
2022/09/07 12:24:03;;;;;;;4.20;2.10;;;23.70;99.90;;;;;;6185010;23;20021;-88
2022/09/07 12:26:35;;;;;;;3.28;1.80;;;23.70;99.90;;;;;;6185651;23;20017;-87
2022/09/07 12:29:00;;;;;;;4.20;1.70;;;23.80;99.90;;;;;;6185240;23;20021;-88
2022/09/07 12:31:43;;;;;;;3.63;1.40;;;23.70;99.90;;;;;;6209570;23;20095;-86
2022/09/07 12:34:32;;;;;;;4.93;2.00;;;23.70;99.90;;;;;;6209897;23;20017;-88
2022/09/07 12:37:21;;;;;;;2.25;1.10;;;23.70;99.90;;;;;;6197968;23;20017;-87
2022/09/07 12:40:11;;;;;;;3.15;1.40;;;23.70;99.90;;;;;;6126952;23;20017;-87
2022/09/07 12:42:37;;;;;;;3.58;1.65;;;23.80;99.90;;;;;;6209569;23;20345;-87
2022/09/07 12:45:21;;;;;;;;;;;23.90;99.90;;;;;;6210373;23;20021;-86
2022/09/07 12:47:57;;;;;;;1.98;1.00;;;23.90;99.90;;;;;;6184560;23;19916;-87
2022/09/07 12:50:31;;;;;;;2.35;1.10;;;23.70;99.90;;;;;;6211692;23;20038;-87
2022/09/07 12:53:12;;;;;;;2.67;1.20;;;23.60;99.90;;;;;;6184833;23;20054;-87
2022/09/07 12:55:50;;;;;;;1.88;1.10;;;23.40;99.90;;;;;;6184832;23;20017;-86
2022/09/07 12:58:37;;;;;;;2.03;1.00;;;23.30;99.90;;;;;;6184692;23;20020;-86
2022/09/07 13:01:43;;;;;;;3.40;1.20;;;23.20;99.90;;;;;;6209837;23;20016;-87
2022/09/07 13:04:35;;;;;;;2.70;1.20;;;23.20;99.90;;;;;;6184327;23;20387;-86
2022/09/07 13:07:38;;;;;;;2.03;0.95;;;23.40;99.90;;;;;;6209863;23;20070;-86
2022/09/07 13:10:22;;;;;;;2.20;1.00;;;23.40;99.90;;;;;;6210072;23;20021;-86
2022/09/07 13:12:50;;;;;;;1.67;0.80;;;23.40;99.90;;;;;;6184641;23;20122;-87
2022/09/07 13:15:45;;;;;;;2.38;1.02;;;23.40;99.90;;;;;;6210185;23;20099;-86
2022/09/07 13:18:33;;;;;;;2.97;0.80;;;23.30;99.90;;;;;;6184551;23;20017;-87
2022/09/07 13:21:08;;;;;;;2.00;0.90;;;23.20;99.90;;;;;;6183093;23;20066;-87
2022/09/07 13:23:37;;;;;;;2.40;0.98;;;23.10;99.90;;;;;;6183088;23;20063;-87
2022/09/07 13:26:06;;;;;;;1.70;0.70;;;23.00;99.90;;;;;;6209172;23;20024;-87
2022/09/07 13:28:50;;;;;;;1.52;0.80;;;23.00;99.90;;;;;;6183546;23;20017;-86
2022/09/07 13:31:42;;;;;;;3.03;1.00;;;23.00;99.90;;;;;;6209519;23;20028;-86
2022/09/07 13:34:44;;;;;;;1.63;0.73;;;23.00;99.90;;;;;;6195740;23;20063;-87
2022/09/07 13:37:17;;;;;;;1.30;0.90;;;22.90;99.90;;;;;;6134548;23;20426;-89
2022/09/07 13:39:46;;;;;;;1.30;0.70;;;22.90;99.90;;;;;;6209317;23;20522;-87
2022/09/07 13:42:23;;;;;;;2.72;0.90;;;22.80;99.90;;;;;;6209940;23;20045;-85
2022/09/07 13:44:53;;;;;;;;;;;22.80;99.90;;;;;;6209647;23;20021;-87
2022/09/07 13:47:44;;;;;;;1.30;0.70;;;22.80;99.90;;;;;;6209182;23;19916;-86
2022/09/07 13:50:36;;;;;;;1.45;0.68;;;22.90;99.90;;;;;;6184337;23;20017;-87
2022/09/07 13:53:17;;;;;;;1.45;0.77;;;23.10;99.90;;;;;;6184539;23;20027;-86
2022/09/07 13:56:08;;;;;;;2.00;0.77;;;23.30;99.90;;;;;;6209610;23;20536;-87
2022/09/07 13:58:39;;;;;;;0.90;0.47;;;23.50;99.90;;;;;;6184680;23;20013;-87
2022/09/07 14:01:14;;;;;;;2.08;0.63;;;23.70;99.60;;;;;;6209935;23;20043;-88
2022/09/07 14:03:51;;;;;;;2.72;1.05;;;23.80;99.50;;;;;;6211296;23;20069;-88
2022/09/07 14:06:20;;;;;;;1.10;0.60;;;23.80;99.00;;;;;;6184819;23;20023;-89
2022/09/07 14:08:51;;;;;;;1.27;0.50;;;23.80;99.00;;;;;;6209233;23;20021;-88
2022/09/07 14:11:47;;;;;;;1.33;0.68;;;23.70;99.10;;;;;;6209342;23;20023;-87
2022/09/07 14:14:18;;;;;;;1.42;0.50;;;23.70;98.70;;;;;;6209151;23;20457;-86
2022/09/07 14:16:57;;;;;;;1.05;0.50;;;23.70;98.80;;;;;;6209210;23;20020;-87
2022/09/07 14:19:30;;;;;;;1.55;0.55;;;23.60;98.70;;;;;;6209068;23;20017;-89
2022/09/07 14:21:59;;;;;;;0.73;0.40;;;23.50;98.60;;;;;;6209572;23;20020;-88
2022/09/07 14:24:33;;;;;;;0.75;0.40;;;23.50;98.70;;;;;;6210992;23;20068;-88
2022/09/07 14:26:59;;;;;;;0.70;0.40;;;23.50;98.40;;;;;;6208962;23;20017;-86
2022/09/07 14:29:34;;;;;;;1.60;0.65;;;23.60;98.40;;;;;;6209234;23;20028;-86
2022/09/07 14:32:02;;;;;;;2.63;1.30;;;23.60;98.30;;;;;;6183159;23;20281;-86
2022/09/07 14:34:35;;;;;;;1.35;0.50;;;23.70;98.50;;;;;;6182236;23;20458;-86
2022/09/07 14:37:11;;;;;;;1.35;0.50;;;23.70;98.30;;;;;;6209108;23;20013;-88
2022/09/07 14:39:43;;;;;;;0.75;0.50;;;23.80;98.00;;;;;;6209392;23;20055;-88
2022/09/07 14:42:18;;;;;;;0.80;0.43;;;23.70;98.10;;;;;;6207644;23;20044;-87
2022/09/07 14:44:44;;;;;;;0.82;0.38;;;23.70;97.90;;;;;;6183525;23;20027;-87
2022/09/07 14:47:29;;;;;;;;;;;23.70;97.90;;;;;;6184570;23;20052;-88
2022/09/07 14:50:04;;;;;;;1.17;0.50;;;23.70;97.00;;;;;;6183637;23;19916;-88
2022/09/07 14:52:35;;;;;;;2.17;0.73;;;23.70;97.80;;;;;;6208840;23;20069;-88
2022/09/07 14:55:18;;;;;;;1.33;0.68;;;23.70;97.60;;;;;;6209513;23;20073;-87
2022/09/07 14:57:44;;;;;;;0.80;0.50;;;23.70;97.60;;;;;;6185492;23;20013;-86
2022/09/07 15:00:28;;;;;;;;;;;23.60;97.70;;;;;;6317416;22;20472;-86
2022/09/07 15:02:54;;;;;;;1.90;0.80;;;23.60;97.20;;;;;;6185343;23;19973;-87
2022/09/07 15:05:23;;;;;;;;;;;23.60;97.60;;;;;;6185919;23;20016;-87
2022/09/07 15:07:50;;;;;;;1.67;0.60;;;23.50;97.00;;;;;;6210112;23;20014;-87
2022/09/07 15:10:22;;;;;;;2.10;0.43;;;23.40;97.50;;;;;;6185367;23;20052;-85
2022/09/07 15:12:59;;;;;;;0.77;0.50;;;23.40;97.60;;;;;;6184637;23;20024;-87
2022/09/07 15:15:29;;;;;;;1.25;0.50;;;23.30;97.60;;;;;;6184768;23;20028;-86
2022/09/07 15:17:57;;;;;;;1.38;0.60;;;23.20;97.60;;;;;;6210372;23;20042;-87
2022/09/07 15:20:49;;;;;;;3.28;1.60;;;23.20;97.80;;;;;;6210431;23;20503;-87
2022/09/07 15:23:19;;;;;;;3.35;1.55;;;23.20;98.10;;;;;;6179827;23;20044;-88
2022/09/07 15:25:49;;;;;;;2.10;1.23;;;23.20;98.30;;;;;;6185711;23;20048;-86
2022/09/07 15:28:24;;;;;;;2.75;1.10;;;23.10;98.30;;;;;;6185235;23;20035;-87
2022/09/07 15:30:55;;;;;;;2.53;1.10;;;23.10;98.20;;;;;;6210284;23;20021;-87
2022/09/07 15:33:21;;;;;;;3.55;0.93;;;23.10;98.30;;;;;;6210588;23;20407;-87
2022/09/07 15:35:51;;;;;;;2.72;1.17;;;23.00;98.30;;;;;;6185581;23;20048;-86
2022/09/07 15:38:22;;;;;;;2.63;1.10;;;23.00;98.40;;;;;;6185171;23;20080;-88
2022/09/07 15:40:56;;;;;;;2.60;1.27;;;23.00;98.60;;;;;;6185223;23;20016;-88